createdAt,value
2022-12-13T00:02:26.369Z,3.45
2022-12-13T00:04:54.071Z,3.23
2022-12-13T00:07:26.749Z,3.22
2022-12-13T00:09:54.183Z,3.45
2022-12-13T00:13:05.684Z,3.39
2022-12-13T00:15:34.069Z,3.35
2022-12-13T00:18:03.916Z,3.28
2022-12-13T00:20:31.298Z,2.91
2022-12-13T00:22:58.393Z,2.83
2022-12-13T00:25:28.061Z,3.01
2022-12-13T00:27:54.997Z,3.00
2022-12-13T00:30:22.300Z,3.24
2022-12-13T00:32:51.709Z,3.08
2022-12-13T00:35:18.688Z,3.13
2022-12-13T00:37:45.694Z,3.82
2022-12-13T00:40:18.299Z,3.58
2022-12-13T00:42:48.218Z,3.51
2022-12-13T00:45:15.710Z,3.64
2022-12-13T00:47:43.335Z,3.19
2022-12-13T00:50:10.769Z,3.47
2022-12-13T00:52:40.341Z,3.36
2022-12-13T00:55:10.011Z,3.36
2022-12-13T00:57:38.048Z,3.21
2022-12-13T01:00:08.320Z,3.38
2022-12-13T01:06:19.374Z,3.33
2022-12-13T01:10:23.375Z,3.36
2022-12-13T01:11:59.887Z,3.35
2022-12-13T01:21:12.348Z,3.29
2022-12-13T01:23:42.866Z,3.42
2022-12-13T01:26:15.862Z,3.34
2022-12-13T01:28:43.020Z,3.46
2022-12-13T01:31:12.675Z,3.21
2022-12-13T01:34:00.130Z,3.42
2022-12-13T01:36:38.148Z,3.29
2022-12-13T01:39:27.995Z,3.24
2022-12-13T01:42:03.473Z,3.33
2022-12-13T01:45:08.782Z,2.64
2022-12-13T01:47:51.978Z,2.78
2022-12-13T01:50:48.444Z,2.57
2022-12-13T01:53:47.850Z,2.61
2022-12-13T01:56:23.555Z,2.80
2022-12-13T01:58:55.475Z,2.54
2022-12-13T02:01:23.366Z,2.67
2022-12-13T02:03:50.536Z,2.55
2022-12-13T02:06:36.967Z,2.45
2022-12-13T02:09:07.185Z,2.54
2022-12-13T02:11:46.977Z,2.65
2022-12-13T02:14:34.469Z,2.65
2022-12-13T02:17:45.560Z,2.85
2022-12-13T02:21:01.881Z,2.70
2022-12-13T02:24:17.690Z,2.90
2022-12-13T02:27:03.520Z,2.50
2022-12-13T02:33:01.256Z,2.85
2022-12-13T02:35:49.054Z,2.64
2022-12-13T02:39:02.766Z,2.83
2022-12-13T02:46:04.438Z,2.79
2022-12-13T02:57:23.501Z,3.30
2022-12-13T03:04:01.166Z,3.28
2022-12-13T03:07:14.463Z,3.06
2022-12-13T03:10:02.764Z,2.87
2022-12-13T03:12:58.831Z,3.20
2022-12-13T03:15:51.280Z,2.92
2022-12-13T03:18:24.795Z,3.35
2022-12-13T03:21:09.819Z,2.67
2022-12-13T03:23:41.154Z,2.55
2022-12-13T03:26:29.875Z,3.19
2022-12-13T03:30:42.605Z,2.74
2022-12-13T03:32:05.858Z,2.57
2022-12-13T03:35:12.425Z,2.83
2022-12-13T03:43:03.494Z,2.47
2022-12-13T03:46:16.558Z,2.54
2022-12-13T03:50:26.088Z,3.01
2022-12-13T03:53:33.227Z,2.85
2022-12-13T03:56:27.237Z,2.81
2022-12-13T04:00:27.695Z,2.49
2022-12-13T04:05:12.372Z,2.19
2022-12-13T04:11:42.783Z,2.38
2022-12-13T04:14:11.313Z,2.46
2022-12-13T04:17:21.041Z,2.67
2022-12-13T04:20:11.628Z,2.94
2022-12-13T04:22:47.178Z,2.92
2022-12-13T04:25:22.640Z,2.70
2022-12-13T04:28:06.566Z,2.69
2022-12-13T04:34:21.829Z,2.36
2022-12-13T04:36:53.645Z,2.47
2022-12-13T04:42:54.595Z,2.78
2022-12-13T04:45:23.389Z,2.73
2022-12-13T04:47:59.562Z,2.56
2022-12-13T04:50:26.858Z,2.72
2022-12-13T04:52:54.072Z,2.56
2022-12-13T04:55:21.298Z,2.53
2022-12-13T04:57:59.089Z,2.77
2022-12-13T05:00:36.179Z,2.95
2022-12-13T05:03:05.713Z,2.76
2022-12-13T05:05:41.879Z,2.71
2022-12-13T05:08:25.191Z,2.72
2022-12-13T05:11:00.074Z,2.58
2022-12-13T05:14:29.116Z,2.63
2022-12-13T05:16:43.119Z,3.01
2022-12-13T05:19:15.783Z,2.62
2022-12-13T05:22:02.775Z,2.70
2022-12-13T05:24:32.128Z,2.75
2022-12-13T05:26:59.450Z,2.97
2022-12-13T05:32:49.504Z,2.44
2022-12-13T05:35:27.625Z,2.43
2022-12-13T05:37:55.399Z,2.67
2022-12-13T05:40:30.409Z,2.21
2022-12-13T05:43:01.985Z,2.30
2022-12-13T05:51:09.862Z,2.20
2022-12-13T05:53:42.198Z,2.18
2022-12-13T05:56:11.547Z,2.30
2022-12-13T15:37:28.094Z,4.52
2022-12-13T15:40:05.060Z,4.35
2022-12-13T15:42:44.435Z,4.73
2022-12-13T15:45:36.603Z,4.48
2022-12-13T15:48:04.818Z,4.42
2022-12-13T15:50:43.864Z,4.35
2022-12-13T15:53:28.337Z,4.67
2022-12-13T15:55:57.640Z,4.80
2022-12-13T15:58:37.962Z,4.67
2022-12-13T16:01:08.807Z,4.95
2022-12-13T16:03:47.281Z,4.55
2022-12-13T16:06:22.818Z,4.65
2022-12-13T16:08:57.104Z,4.82
2022-12-13T16:11:30.930Z,4.90
2022-12-13T16:14:26.619Z,4.84
2022-12-13T16:16:55.425Z,4.80
2022-12-13T16:19:26.849Z,5.15
2022-12-13T16:21:58.697Z,5.06
2022-12-13T16:24:26.909Z,4.63
2022-12-13T16:27:08.334Z,4.87
2022-12-13T16:29:39.477Z,4.80
2022-12-13T16:32:18.603Z,4.63
2022-12-13T16:34:45.945Z,4.91
2022-12-13T16:37:26.210Z,4.75
2022-12-13T16:39:54.897Z,4.63
2022-12-13T16:42:29.476Z,5.13
2022-12-13T17:25:30.185Z,4.73
2022-12-13T17:28:04.974Z,4.44
2022-12-13T17:30:40.241Z,4.47
2022-12-13T17:33:15.525Z,4.88
2022-12-13T17:38:25.281Z,5.00
2022-12-13T17:41:05.428Z,5.09
2022-12-13T17:43:38.382Z,5.00
2022-12-13T17:46:13.924Z,4.96
2022-12-13T17:48:41.694Z,4.56
2022-12-13T17:54:19.860Z,4.64
2022-12-13T17:56:47.458Z,4.80
2022-12-13T17:59:23.883Z,5.15
2022-12-13T18:01:51.313Z,4.75
2022-12-13T18:04:18.340Z,4.86
2022-12-13T18:06:54.768Z,4.81
2022-12-13T18:10:05.864Z,4.54
2022-12-13T18:12:38.954Z,4.67
2022-12-13T18:15:06.792Z,4.74
2022-12-13T18:21:06.040Z,4.95
2022-12-13T18:55:17.254Z,4.54
2022-12-13T18:57:45.406Z,4.63
2022-12-13T19:00:12.687Z,4.60
2022-12-13T19:02:39.813Z,4.70
2022-12-13T19:05:06.791Z,4.67
2022-12-13T19:07:33.870Z,4.67
2022-12-13T19:10:08.954Z,4.39
2022-12-13T19:12:41.550Z,4.60
2022-12-13T19:15:08.740Z,4.51
2022-12-13T19:17:36.648Z,4.36
2022-12-13T19:20:03.902Z,4.28
2022-12-13T19:22:30.849Z,4.51
2022-12-13T19:24:57.732Z,4.76
2022-12-13T19:27:24.624Z,4.50
2022-12-13T19:29:54.246Z,4.70
2022-12-13T19:32:26.247Z,4.76
2022-12-13T19:34:53.357Z,4.64
2022-12-13T19:37:22.528Z,4.57
2022-12-13T19:39:58.003Z,4.62
2022-12-13T19:42:25.323Z,4.58
2022-12-13T19:44:52.689Z,4.58
2022-12-13T19:47:21.511Z,4.45
2022-12-13T19:49:48.468Z,4.37
2022-12-13T19:52:15.450Z,4.25
2022-12-13T19:54:42.939Z,4.50
2022-12-13T19:57:10.103Z,4.28
2022-12-13T19:59:36.997Z,4.51
2022-12-13T20:02:06.327Z,4.59
2022-12-13T20:04:36.327Z,4.59
2022-12-13T20:07:03.591Z,4.65
2022-12-13T20:09:30.626Z,4.86
2022-12-13T20:11:57.861Z,4.37
2022-12-13T20:14:25.418Z,4.43
2022-12-13T20:16:54.076Z,4.23
2022-12-13T20:19:21.318Z,4.27
2022-12-13T20:21:53.569Z,4.07
2022-12-13T20:24:23.792Z,4.53
2022-12-13T20:26:51.039Z,4.75
2022-12-13T20:29:19.262Z,4.72
2022-12-13T20:31:48.362Z,4.41
2022-12-13T20:34:16.333Z,4.27
2022-12-13T20:36:43.236Z,4.47
2022-12-13T20:39:13.058Z,4.11
2022-12-13T20:41:40.186Z,3.94
2022-12-13T20:44:09.173Z,3.98
2022-12-13T20:46:36.935Z,4.00
2022-12-13T20:49:06.371Z,4.44
2022-12-13T20:51:34.507Z,4.50
2022-12-13T20:54:01.987Z,4.16
2022-12-13T20:56:35.369Z,4.21
2022-12-13T20:59:04.101Z,4.44
2022-12-13T21:01:35.198Z,4.22
2022-12-13T21:04:05.721Z,4.22
2022-12-13T21:06:34.588Z,4.35
2022-12-13T21:09:03.115Z,4.41
2022-12-13T21:11:36.135Z,4.52
2022-12-13T21:14:11.000Z,4.45
2022-12-13T21:16:44.681Z,4.43
2022-12-13T21:19:15.838Z,4.32
2022-12-13T21:21:43.088Z,4.30
2022-12-13T21:24:15.008Z,4.47
2022-12-13T21:26:43.090Z,4.91
2022-12-13T21:29:11.628Z,4.79
2022-12-13T21:31:40.619Z,4.57
2022-12-13T21:34:08.130Z,4.38
2022-12-13T21:36:37.642Z,4.22
2022-12-13T21:39:08.054Z,4.29
2022-12-13T21:41:35.291Z,4.21
2022-12-13T21:44:02.204Z,4.20
2022-12-13T21:46:54.814Z,4.36
2022-12-13T21:49:17.570Z,4.55
2022-12-13T21:51:47.901Z,4.42
2022-12-13T21:54:15.193Z,4.38
2022-12-13T21:57:17.228Z,4.62
2022-12-13T21:59:44.053Z,4.79
2022-12-13T22:02:17.097Z,4.73
2022-12-13T22:04:51.680Z,4.99
2022-12-13T22:07:30.410Z,4.88
2022-12-13T22:09:59.342Z,4.87
2022-12-13T22:12:32.837Z,4.42
2022-12-13T22:17:49.875Z,4.34
2022-12-13T22:20:41.361Z,4.69
2022-12-13T22:23:17.545Z,4.56
2022-12-13T22:26:07.496Z,4.32
2022-12-13T22:28:40.304Z,4.28
2022-12-13T22:31:07.389Z,4.33
2022-12-13T22:33:34.160Z,4.24
2022-12-13T22:36:01.880Z,4.16
2022-12-13T22:38:32.164Z,4.36
2022-12-13T22:45:04.108Z,3.90
2022-12-13T22:47:31.004Z,4.07
2022-12-13T22:50:09.121Z,4.07
2022-12-13T22:54:55.045Z,4.08
2022-12-13T22:59:24.063Z,3.82
2022-12-13T23:01:54.302Z,3.87
2022-12-13T23:04:22.586Z,3.74
2022-12-13T23:06:50.448Z,3.75
2022-12-13T23:09:17.596Z,3.90
2022-12-13T23:12:03.046Z,4.17
2022-12-13T23:14:34.601Z,3.97
2022-12-13T23:17:05.340Z,3.97
2022-12-13T23:19:49.445Z,4.03
2022-12-13T23:22:25.711Z,4.19
2022-12-13T23:24:53.389Z,4.22
2022-12-13T23:27:22.031Z,4.14
2022-12-13T23:29:49.489Z,3.95
2022-12-13T23:32:16.967Z,3.72
2022-12-13T23:34:44.024Z,3.70
2022-12-13T23:37:11.350Z,3.67
2022-12-13T23:39:38.473Z,3.59
2022-12-13T23:42:05.418Z,3.63
2022-12-13T23:44:32.764Z,3.57
2022-12-13T23:47:01.972Z,3.64
2022-12-13T23:49:29.319Z,3.53
2022-12-13T23:51:56.421Z,3.67
2022-12-13T23:54:23.356Z,3.80
